createdAt,value
2022-09-12T15:55:22.818Z,82.50
2022-09-12T15:57:56.274Z,82.50
2022-09-12T16:00:29.658Z,83.90
2022-09-12T16:03:03.002Z,84.40
2022-09-12T16:05:36.836Z,84.50
2022-09-12T16:08:10.118Z,84.90
2022-09-12T16:10:45.739Z,83.80
2022-09-12T16:13:19.040Z,83.30
2022-09-12T16:15:53.062Z,82.90
2022-09-12T16:18:26.666Z,84.20
2022-09-12T16:20:59.995Z,84.50
2022-09-12T16:23:33.340Z,85.20
2022-09-12T16:26:08.590Z,85.40
2022-09-12T16:28:42.283Z,86.30
2022-09-12T16:31:16.039Z,87.40
2022-09-12T16:33:49.723Z,88.80
2022-09-12T16:36:23.987Z,89.20
2022-09-12T16:38:57.460Z,89.00
2022-09-12T16:41:32.193Z,87.70
2022-09-12T16:44:05.472Z,88.20
2022-09-12T16:46:38.905Z,89.00
2022-09-12T16:49:12.674Z,89.50
2022-09-12T16:51:47.599Z,90.00
2022-09-12T16:54:21.414Z,90.50
2022-09-12T16:56:56.113Z,91.10
2022-09-12T16:59:29.457Z,91.50
2022-09-12T17:02:03.523Z,92.50
2022-09-12T17:04:37.208Z,93.50
2022-09-12T17:07:10.785Z,94.50
2022-09-12T17:09:47.796Z,97.20
2022-09-12T17:12:24.053Z,99.90
2022-09-12T17:14:58.323Z,99.90
2022-09-12T17:17:31.631Z,99.90
2022-09-12T17:20:05.502Z,99.90
2022-09-12T17:22:38.834Z,99.90
2022-09-12T17:25:12.189Z,99.90
2022-09-12T17:27:46.924Z,99.90
2022-09-12T17:30:20.287Z,99.90
2022-09-12T17:32:54.344Z,99.90
2022-09-12T17:35:27.707Z,99.90
2022-09-12T17:38:01.253Z,99.90
2022-09-12T17:40:58.553Z,99.90
2022-09-12T17:43:34.492Z,99.90
2022-09-12T17:46:08.351Z,99.90
2022-09-12T17:48:41.879Z,99.90
2022-09-12T17:51:16.349Z,99.90
2022-09-12T17:53:49.771Z,99.90
2022-09-12T17:56:23.115Z,99.90
2022-09-12T17:58:58.896Z,99.90
2022-09-12T18:01:50.157Z,99.90
2022-09-12T18:04:23.768Z,99.90
2022-09-12T18:06:57.807Z,99.90
2022-09-12T18:09:31.687Z,99.90
2022-09-12T18:12:05.465Z,99.90
2022-09-12T18:14:40.275Z,99.90
2022-09-12T18:17:13.728Z,99.90
2022-09-12T18:19:52.879Z,99.90
2022-09-12T18:22:26.896Z,99.90
2022-09-12T18:25:00.271Z,99.90
2022-09-12T18:27:33.762Z,99.90
2022-09-12T18:30:21.278Z,99.90
2022-09-12T18:32:55.275Z,99.90
2022-09-12T18:35:28.729Z,99.90
2022-09-12T18:38:02.397Z,99.90
2022-09-12T18:40:35.962Z,99.90
2022-09-12T18:43:09.309Z,99.90
2022-09-12T18:45:44.194Z,99.90
2022-09-12T18:48:17.729Z,99.90
2022-09-12T18:50:51.260Z,99.90
2022-09-12T18:53:24.840Z,99.90
2022-09-12T18:56:02.329Z,99.90
2022-09-12T18:58:36.288Z,99.90
2022-09-12T19:01:12.752Z,99.90
2022-09-12T19:03:46.208Z,99.90
2022-09-12T19:06:21.218Z,99.90
2022-09-12T19:08:55.504Z,99.90
2022-09-12T19:11:29.985Z,99.90
2022-09-12T19:14:03.572Z,99.90
2022-09-12T19:16:38.515Z,99.90
2022-09-12T19:19:11.890Z,99.90
2022-09-12T19:21:45.607Z,99.90
2022-09-12T19:24:19.447Z,99.90
2022-09-12T19:26:52.780Z,99.90
2022-09-12T19:29:26.171Z,99.90
2022-09-12T19:32:00.916Z,99.90
2022-09-12T19:34:34.274Z,99.90
2022-09-12T19:37:07.704Z,99.90
2022-09-12T19:39:43.041Z,99.90
2022-09-12T19:42:16.703Z,99.90
2022-09-12T19:44:53.103Z,99.90
2022-09-12T19:47:27.877Z,99.90
2022-09-12T19:50:01.295Z,99.90
2022-09-12T19:52:34.672Z,99.90
2022-09-12T19:55:09.432Z,99.90
2022-09-12T19:57:43.053Z,99.90
2022-09-12T20:00:16.920Z,99.90
2022-09-12T20:02:55.557Z,99.90
2022-09-12T20:05:29.216Z,99.90
2022-09-12T20:08:03.185Z,99.90
2022-09-12T20:10:36.561Z,99.90
2022-09-12T20:13:09.840Z,99.90
2022-09-12T20:15:43.170Z,99.90
2022-09-12T20:18:17.906Z,99.90
2022-09-12T20:20:51.166Z,99.90
2022-09-12T20:23:24.843Z,99.90
2022-09-12T20:26:02.003Z,99.90
2022-09-12T20:28:35.326Z,99.90
2022-09-12T20:31:12.307Z,99.90
2022-09-12T20:33:51.662Z,99.90
2022-09-12T20:36:25.498Z,99.90
2022-09-12T20:39:01.351Z,99.90
2022-09-12T20:41:36.454Z,99.90
2022-09-12T20:44:10.227Z,99.90
2022-09-12T20:46:43.601Z,99.90
2022-09-12T20:49:18.322Z,99.90
2022-09-12T20:51:51.649Z,99.90
2022-09-12T20:54:24.951Z,99.90
2022-09-12T20:56:58.263Z,99.90
2022-09-12T20:59:31.538Z,99.90
2022-09-12T21:02:04.955Z,99.90
2022-09-12T21:04:39.711Z,99.90
2022-09-12T21:07:13.026Z,99.90
2022-09-12T21:09:46.308Z,99.90
2022-09-12T21:12:19.688Z,99.90
2022-09-12T21:14:53.038Z,99.90
2022-09-12T21:17:26.326Z,99.90
2022-09-12T21:20:01.017Z,99.90
2022-09-12T21:22:34.347Z,99.90
2022-09-12T21:25:08.112Z,99.90
2022-09-12T21:27:41.475Z,99.90
2022-09-12T21:30:15.320Z,99.90
2022-09-12T21:32:48.639Z,99.90
2022-09-12T21:35:23.454Z,99.90
2022-09-12T21:37:57.377Z,99.90
2022-09-12T21:40:30.753Z,99.90
2022-09-12T21:43:05.200Z,99.90
2022-09-12T21:45:40.551Z,99.90
2022-09-12T21:48:13.841Z,99.90
2022-09-12T21:50:52.505Z,99.90
2022-09-12T21:53:25.889Z,99.90
2022-09-12T21:56:02.736Z,99.90
2022-09-12T21:58:36.408Z,99.90
2022-09-12T22:01:12.650Z,99.90
2022-09-12T22:03:46.095Z,99.90
2022-09-12T22:06:22.591Z,99.90
2022-09-12T22:08:56.337Z,99.90
2022-09-12T22:11:29.631Z,99.90
2022-09-12T22:14:02.935Z,99.90
2022-09-12T22:16:36.250Z,99.90
2022-09-12T22:19:09.624Z,99.90
2022-09-12T22:22:05.122Z,99.90
2022-09-12T22:24:37.605Z,99.90
2022-09-12T22:27:10.818Z,99.90
2022-09-12T22:29:46.201Z,99.90
2022-09-12T22:32:20.150Z,99.90
2022-09-12T22:34:53.573Z,99.90
2022-09-12T22:37:28.307Z,99.90
2022-09-12T22:40:01.646Z,99.90
2022-09-12T22:42:35.651Z,99.90
2022-09-12T22:45:10.264Z,99.90
2022-09-12T22:47:43.714Z,99.90
2022-09-12T22:50:17.190Z,99.90
2022-09-12T22:52:54.010Z,99.90
2022-09-12T22:55:27.889Z,99.90
2022-09-12T22:58:01.283Z,99.90
2022-09-12T23:00:35.047Z,99.90
2022-09-12T23:03:08.500Z,99.90
2022-09-12T23:05:41.847Z,99.90
2022-09-12T23:08:17.119Z,99.90
2022-09-12T23:10:50.837Z,99.90
2022-09-12T23:13:24.126Z,99.90
2022-09-12T23:16:00.795Z,99.90
2022-09-12T23:18:36.031Z,99.90
2022-09-12T23:21:11.337Z,99.90
2022-09-12T23:23:46.311Z,99.90
2022-09-12T23:26:21.642Z,99.90
2022-09-12T23:28:57.397Z,99.90
2022-09-12T23:31:32.466Z,99.90
2022-09-12T23:34:07.103Z,99.90
2022-09-12T23:36:40.408Z,99.90
2022-09-12T23:39:15.593Z,99.90
2022-09-12T23:41:48.920Z,99.90
2022-09-12T23:44:22.372Z,99.90
2022-09-12T23:46:55.655Z,99.90
2022-09-12T23:49:28.902Z,99.90
2022-09-12T23:52:02.472Z,99.90
2022-09-12T23:54:37.153Z,99.90
2022-09-12T23:57:10.592Z,99.90
2022-09-12T23:59:43.830Z,99.90
